Time;durP1;ratioP1;P1;durP2;ratioP2;P2;SDS_P1;SDS_P2;PMS_P1;PMS_P2;Temp;Humidity;BMP_temperature;BMP_pressure;BME280_temperature;BME280_humidity;BME280_pressure;Samples;Min_cycle;Max_cycle;Signal;HPM_P1;HPM_P2
2024/01/20 00:00:40;;;;;;;10.75;2.38;;;1.40;99.90;;;;;;5061763;28;20044;-63
2024/01/20 00:03:05;;;;;;;10.13;3.40;;;2.40;99.90;;;;;;5079774;28;20043;-64
2024/01/20 00:05:31;;;;;;;10.30;3.30;;;2.10;99.90;;;;;;5079430;28;20109;-64
2024/01/20 00:07:57;;;;;;;10.77;3.72;;;1.70;99.90;;;;;;5079897;28;20052;-64
2024/01/20 00:10:22;;;;;;;10.55;3.35;;;1.70;99.90;;;;;;5079656;28;20040;-64
2024/01/20 00:12:48;;;;;;;10.65;3.08;;;1.80;99.90;;;;;;5061881;28;20041;-64
2024/01/20 00:15:14;;;;;;;11.98;3.30;;;1.10;99.90;;;;;;5079137;28;20115;-64
2024/01/20 00:17:40;;;;;;;12.20;3.47;;;2.00;99.90;;;;;;5078576;28;20126;-65
2024/01/20 00:20:06;;;;;;;10.50;3.60;;;1.70;99.90;;;;;;5079179;28;20113;-64
2024/01/20 00:22:32;;;;;;;13.05;3.67;;;2.00;99.90;;;;;;5079096;28;20131;-64
2024/01/20 00:25:00;;;;;;;15.75;3.92;;;1.00;99.90;;;;;;5079580;28;20055;-64
2024/01/20 00:27:26;;;;;;;11.57;3.67;;;2.00;99.90;;;;;;5079275;28;20076;-65
2024/01/20 00:29:52;;;;;;;12.93;3.55;;;1.90;99.90;;;;;;5079309;28;20101;-65
2024/01/20 00:32:18;;;;;;;9.55;3.63;;;1.20;99.90;;;;;;5079089;28;20049;-64
2024/01/20 00:34:44;;;;;;;13.40;4.22;;;1.90;99.90;;;;;;5078767;28;20135;-64
2024/01/20 00:37:09;;;;;;;12.82;4.65;;;0.70;99.90;;;;;;5078922;28;20049;-64
2024/01/20 00:39:36;;;;;;;10.52;5.13;;;0.70;99.90;;;;;;5060655;28;20087;-64
2024/01/20 00:42:02;;;;;;;14.32;5.72;;;0.90;99.90;;;;;;5077881;28;20503;-64
2024/01/20 00:44:27;;;;;;;12.30;5.25;;;0.80;99.90;;;;;;5079087;28;20052;-64
2024/01/20 00:46:53;;;;;;;11.30;5.70;;;0.90;99.90;;;;;;5079383;28;20075;-64
2024/01/20 00:49:19;;;;;;;15.10;5.32;;;1.40;99.90;;;;;;5078449;28;20079;-64
2024/01/20 00:51:44;;;;;;;14.00;5.63;;;1.50;99.90;;;;;;5078763;28;20141;-64
2024/01/20 00:54:10;;;;;;;13.13;5.93;;;1.50;99.90;;;;;;5078613;28;20070;-64
2024/01/20 00:56:36;;;;;;;11.05;5.90;;;0.70;99.90;;;;;;5078685;28;20066;-64
2024/01/20 00:59:01;;;;;;;15.40;5.95;;;0.90;99.90;;;;;;5060823;28;20049;-64
2024/01/20 01:01:27;;;;;;;13.75;6.40;;;1.50;99.90;;;;;;5078857;28;20066;-64
2024/01/20 01:03:52;;;;;;;12.30;5.78;;;0.50;99.90;;;;;;5060920;28;20094;-64
2024/01/20 01:06:18;;;;;;;16.95;5.97;;;1.50;99.90;;;;;;5060549;28;20041;-64
2024/01/20 01:08:44;;;;;;;15.50;6.47;;;1.60;99.90;;;;;;5078498;28;20040;-64
2024/01/20 01:11:10;;;;;;;15.85;6.53;;;0.70;99.90;;;;;;5078656;28;20037;-64
2024/01/20 01:13:37;;;;;;;14.32;5.95;;;1.50;99.90;;;;;;5060584;28;20108;-64
2024/01/20 01:16:05;;;;;;;14.15;6.85;;;0.70;99.90;;;;;;5078128;28;20048;-64
2024/01/20 01:18:32;;;;;;;16.30;6.55;;;1.10;99.90;;;;;;5078559;28;20063;-64
2024/01/20 01:20:58;;;;;;;13.55;6.00;;;0.70;99.90;;;;;;5078694;28;20496;-64
2024/01/20 01:23:24;;;;;;;12.00;6.95;;;0.60;99.90;;;;;;5060644;28;20037;-63
2024/01/20 01:25:49;;;;;;;16.77;6.80;;;0.50;99.90;;;;;;5078601;28;20519;-64
2024/01/20 01:28:15;;;;;;;14.77;7.30;;;0.70;99.90;;;;;;5060104;28;20614;-64
2024/01/20 01:30:41;;;;;;;16.08;6.13;;;0.80;99.90;;;;;;5077735;28;20076;-65
2024/01/20 01:33:06;;;;;;;15.45;6.22;;;1.80;99.90;;;;;;5060322;28;20067;-64
2024/01/20 01:35:32;;;;;;;18.77;6.43;;;0.60;99.90;;;;;;5060342;28;20491;-64
2024/01/20 01:37:58;;;;;;;15.23;5.93;;;1.80;99.90;;;;;;5078409;28;20075;-64
2024/01/20 01:40:25;;;;;;;15.55;6.50;;;1.70;99.90;;;;;;5078554;28;20051;-64
2024/01/20 01:42:56;;;;;;;18.13;6.03;;;1.60;99.90;;;;;;5078350;28;20048;-64
2024/01/20 01:45:23;;;;;;;17.48;6.05;;;0.80;99.90;;;;;;5077831;28;20458;-64
2024/01/20 01:47:51;;;;;;;17.80;6.20;;;1.70;99.90;;;;;;5077743;28;20041;-64
2024/01/20 01:50:18;;;;;;;16.17;6.80;;;0.80;99.90;;;;;;5043486;28;20044;-64
2024/01/20 01:52:45;;;;;;;16.70;5.97;;;0.90;99.90;;;;;;5060542;28;20119;-64
2024/01/20 01:55:11;;;;;;;10.65;5.20;;;1.50;99.90;;;;;;5078304;28;20040;-63
2024/01/20 01:57:41;;;;;;;12.00;5.85;;;1.10;99.90;;;;;;5078345;28;20055;-64
2024/01/20 02:00:07;;;;;;;15.98;6.22;;;0.90;99.90;;;;;;5077642;28;20121;-64
2024/01/20 02:02:32;;;;;;;10.38;5.70;;;1.90;99.90;;;;;;5078030;28;20079;-64
2024/01/20 02:04:58;;;;;;;12.60;5.50;;;1.00;99.90;;;;;;5078114;28;20488;-64
2024/01/20 02:07:24;;;;;;;11.57;5.57;;;0.90;99.90;;;;;;5078029;28;20032;-64
2024/01/20 02:09:50;;;;;;;11.88;5.95;;;2.00;99.90;;;;;;5078113;28;20052;-63
2024/01/20 02:12:16;;;;;;;18.17;5.57;;;2.00;99.90;;;;;;5078198;28;20056;-64
2024/01/20 02:14:46;;;;;;;14.75;5.50;;;1.20;99.90;;;;;;5078262;28;20494;-64
2024/01/20 02:17:12;;;;;;;13.35;5.53;;;2.00;99.90;;;;;;5077782;28;20121;-64
2024/01/20 02:19:39;;;;;;;17.95;5.22;;;1.20;99.90;;;;;;5077630;28;20396;-64
2024/01/20 02:22:09;;;;;;;13.40;5.28;;;1.00;99.90;;;;;;5077982;28;20041;-64
2024/01/20 02:24:37;;;;;;;12.18;4.93;;;1.00;99.90;;;;;;5077661;28;20563;-64
2024/01/20 02:27:03;;;;;;;12.10;4.53;;;1.60;99.90;;;;;;5060013;28;20162;-64
2024/01/20 02:29:28;;;;;;;17.02;5.63;;;1.60;99.90;;;;;;5059665;28;20095;-64
2024/01/20 02:31:54;;;;;;;13.93;4.90;;;1.20;99.90;;;;;;5078212;28;20047;-64
2024/01/20 02:34:20;;;;;;;13.88;4.60;;;2.10;99.90;;;;;;5077794;28;20041;-64
2024/01/20 02:36:45;;;;;;;14.02;5.03;;;1.80;99.90;;;;;;5077540;28;20040;-63
2024/01/20 02:39:11;;;;;;;12.13;5.22;;;0.90;99.90;;;;;;5077488;28;20040;-64
2024/01/20 02:41:37;;;;;;;12.68;5.18;;;1.90;99.90;;;;;;5061696;28;20048;-64
2024/01/20 02:44:02;;;;;;;13.10;5.03;;;1.50;99.90;;;;;;5081317;28;20126;-63
2024/01/20 02:46:28;;;;;;;16.63;5.40;;;1.10;99.90;;;;;;5081245;28;20094;-63
2024/01/20 02:48:54;;;;;;;12.73;5.63;;;1.00;99.90;;;;;;5081433;28;20052;-63
2024/01/20 02:51:19;;;;;;;15.32;6.47;;;1.10;99.90;;;;;;5079589;28;20397;-64
2024/01/20 02:53:45;;;;;;;14.68;6.25;;;1.60;99.90;;;;;;5046476;28;20052;-63
2024/01/20 02:56:12;;;;;;;13.05;6.43;;;0.60;99.90;;;;;;5062834;28;20086;-64
2024/01/20 02:58:38;;;;;;;13.13;7.40;;;1.50;99.90;;;;;;5080988;28;20036;-63
2024/01/20 03:01:06;;;;;;;15.05;8.18;;;1.10;99.90;;;;;;5080909;28;20040;-64
2024/01/20 03:03:31;;;;;;;18.38;7.40;;;1.60;99.90;;;;;;5063030;28;20057;-64
2024/01/20 03:05:57;;;;;;;16.92;7.88;;;0.60;99.90;;;;;;5080929;28;20086;-63
2024/01/20 03:08:23;;;;;;;16.45;7.25;;;1.60;99.90;;;;;;5080904;28;20049;-63
2024/01/20 03:10:49;;;;;;;16.02;8.98;;;0.60;99.90;;;;;;5080834;28;20079;-64
2024/01/20 03:13:14;;;;;;;16.42;8.35;;;0.90;99.90;;;;;;5080616;28;20052;-64
2024/01/20 03:15:40;;;;;;;12.80;7.85;;;0.60;99.90;;;;;;5080869;28;20041;-64
2024/01/20 03:18:07;;;;;;;18.17;8.45;;;1.10;99.90;;;;;;5080389;28;20110;-64
2024/01/20 03:20:33;;;;;;;14.48;7.95;;;1.50;99.90;;;;;;5080745;28;20049;-63
2024/01/20 03:22:58;;;;;;;21.25;8.80;;;0.40;99.90;;;;;;5080749;28;20063;-64
2024/01/20 03:25:24;;;;;;;19.40;8.98;;;1.30;99.90;;;;;;5062666;28;20037;-63
2024/01/20 03:27:53;;;;;;;16.40;9.57;;;0.20;99.90;;;;;;5080443;28;20044;-63
2024/01/20 03:30:18;;;;;;;22.48;10.73;;;0.20;99.90;;;;;;5080440;28;20044;-64
2024/01/20 03:32:44;;;;;;;21.02;12.43;;;1.00;99.90;;;;;;5079113;28;20082;-64
2024/01/20 03:35:09;;;;;;;23.25;12.48;;;0.50;99.90;;;;;;5079802;28;20086;-64
2024/01/20 03:37:35;;;;;;;18.23;11.77;;;-0.20;99.90;;;;;;5062750;28;20056;-64
2024/01/20 03:40:02;;;;;;;19.48;11.98;;;0.90;99.90;;;;;;5062092;28;20112;-64
2024/01/20 03:42:28;;;;;;;22.45;13.30;;;0.80;99.90;;;;;;5062474;28;20056;-63
2024/01/20 03:44:55;;;;;;;23.02;13.70;;;0.80;99.90;;;;;;5080112;28;20044;-63
2024/01/20 03:47:20;;;;;;;30.30;15.30;;;-0.30;99.90;;;;;;5079891;28;20080;-63
2024/01/20 03:49:46;;;;;;;21.50;14.07;;;0.90;99.90;;;;;;5080040;28;20446;-63
2024/01/20 03:52:12;;;;;;;25.30;15.43;;;0.70;99.90;;;;;;5061080;28;20499;-64
2024/01/20 03:54:39;;;;;;;28.48;15.35;;;0.00;99.90;;;;;;5079954;28;20052;-63
2024/01/20 03:57:05;;;;;;;24.77;16.88;;;0.90;99.90;;;;;;5079768;28;20045;-63
2024/01/20 03:59:31;;;;;;;26.23;16.08;;;-0.30;99.90;;;;;;5080168;28;20445;-63
2024/01/20 04:01:56;;;;;;;25.05;16.33;;;0.70;99.90;;;;;;5080057;28;20135;-63
2024/01/20 04:04:22;;;;;;;24.63;16.27;;;0.80;99.90;;;;;;5079571;28;20068;-63
2024/01/20 04:06:48;;;;;;;27.35;17.08;;;-0.40;99.90;;;;;;5079452;28;20471;-63
2024/01/20 04:09:13;;;;;;;26.98;17.25;;;0.80;99.90;;;;;;5061185;28;20047;-63
2024/01/20 04:11:39;;;;;;;25.23;17.02;;;0.10;99.90;;;;;;5079506;28;20036;-63
2024/01/20 04:14:05;;;;;;;30.27;17.30;;;-0.50;99.90;;;;;;5061787;28;20037;-62
2024/01/20 04:16:30;;;;;;;33.40;17.50;;;0.40;99.90;;;;;;5061461;28;20561;-63
2024/01/20 04:18:56;;;;;;;29.10;17.80;;;-0.10;99.90;;;;;;5079697;28;20044;-64
2024/01/20 04:21:22;;;;;;;35.83;18.92;;;0.70;99.90;;;;;;5061988;28;20040;-64
2024/01/20 04:23:49;;;;;;;27.52;17.65;;;-0.20;99.90;;;;;;5078957;28;20032;-63
2024/01/20 04:26:16;;;;;;;32.50;17.88;;;-0.10;99.90;;;;;;5079156;28;20055;-63
2024/01/20 04:28:42;;;;;;;29.17;18.23;;;0.30;99.90;;;;;;5079034;28;20048;-63
2024/01/20 04:31:08;;;;;;;32.05;17.42;;;-0.50;99.90;;;;;;5079356;28;20106;-64
2024/01/20 04:33:36;;;;;;;31.55;16.98;;;0.60;99.90;;;;;;5079384;28;20084;-63
2024/01/20 04:36:03;;;;;;;27.83;18.58;;;-0.40;99.90;;;;;;5079117;28;20405;-63
2024/01/20 04:38:28;;;;;;;31.20;17.50;;;-0.40;99.90;;;;;;5077923;28;20037;-64
2024/01/20 04:40:54;;;;;;;28.77;17.45;;;-0.10;99.90;;;;;;5078863;28;20055;-63
2024/01/20 04:43:20;;;;;;;27.42;17.65;;;-0.40;99.90;;;;;;5079177;28;20037;-63
2024/01/20 04:45:46;;;;;;;35.60;18.08;;;-0.10;99.90;;;;;;5060590;28;20049;-63
2024/01/20 04:48:11;;;;;;;27.50;18.00;;;0.70;99.90;;;;;;5079045;28;20076;-63
2024/01/20 04:50:37;;;;;;;34.40;20.00;;;-0.50;99.90;;;;;;5060925;28;20061;-63
2024/01/20 04:53:03;;;;;;;33.03;18.70;;;0.80;99.90;;;;;;5079009;28;20124;-63
2024/01/20 04:55:29;;;;;;;30.02;17.60;;;0.50;99.90;;;;;;5079120;28;20040;-64
2024/01/20 04:57:54;;;;;;;25.15;17.85;;;0.70;99.90;;;;;;5078944;28;20048;-63
2024/01/20 05:00:20;;;;;;;28.15;18.30;;;0.70;99.90;;;;;;5078469;28;20043;-63
2024/01/20 05:02:46;;;;;;;25.13;17.00;;;0.70;99.90;;;;;;5078907;28;20048;-63
2024/01/20 05:05:11;;;;;;;28.45;16.88;;;0.10;99.90;;;;;;5060042;28;20784;-63
2024/01/20 05:07:37;;;;;;;30.52;17.90;;;-0.50;99.90;;;;;;5078600;28;20036;-63
2024/01/20 05:10:03;;;;;;;31.60;18.63;;;-0.50;99.90;;;;;;5078695;28;20036;-63
2024/01/20 05:12:29;;;;;;;29.83;19.00;;;0.70;99.90;;;;;;5078922;28;20063;-63
2024/01/20 05:14:55;;;;;;;27.85;18.00;;;0.70;99.90;;;;;;5078603;28;20036;-63
2024/01/20 05:17:21;;;;;;;30.55;18.38;;;0.00;99.90;;;;;;5060267;28;20065;-63
2024/01/20 05:19:47;;;;;;;32.42;18.52;;;0.60;99.90;;;;;;5078546;28;20139;-63
2024/01/20 05:22:12;;;;;;;29.92;17.88;;;0.30;99.90;;;;;;5078085;28;20157;-63
2024/01/20 05:24:38;;;;;;;28.95;17.95;;;-0.70;99.90;;;;;;5078668;28;20092;-63
2024/01/20 05:27:04;;;;;;;31.25;18.88;;;0.20;99.90;;;;;;5078482;28;20691;-63
2024/01/20 05:29:30;;;;;;;31.42;18.77;;;-0.70;99.90;;;;;;5078515;28;20048;-63
2024/01/20 05:31:55;;;;;;;30.55;19.40;;;-0.40;99.90;;;;;;5078534;28;20047;-63
2024/01/20 05:34:21;;;;;;;30.85;18.45;;;0.40;99.90;;;;;;5078366;28;20040;-64
2024/01/20 05:36:47;;;;;;;31.05;18.05;;;-0.30;99.90;;;;;;5078081;28;20400;-64
2024/01/20 05:39:13;;;;;;;31.33;18.20;;;0.50;99.90;;;;;;5078505;28;20064;-63
2024/01/20 05:41:38;;;;;;;36.80;19.15;;;-0.20;99.90;;;;;;5078386;28;20185;-63
2024/01/20 05:44:04;;;;;;;33.03;18.80;;;0.60;99.90;;;;;;5078652;28;20044;-63
2024/01/20 05:46:30;;;;;;;32.80;18.58;;;-0.60;99.90;;;;;;5078676;28;20037;-63
2024/01/20 05:48:55;;;;;;;37.03;18.63;;;-0.70;99.90;;;;;;5056331;28;20108;-64
2024/01/20 05:51:21;;;;;;;28.08;15.25;;;0.30;99.90;;;;;;5074048;28;20351;-62
2024/01/20 05:53:47;;;;;;;27.42;15.75;;;0.60;99.90;;;;;;5073652;28;20044;-63
2024/01/20 05:56:12;;;;;;;30.35;15.18;;;-0.30;99.90;;;;;;5072626;28;20045;-63
2024/01/20 05:58:38;;;;;;;28.75;15.88;;;0.50;99.90;;;;;;5073863;28;20036;-63
2024/01/20 06:01:04;;;;;;;30.48;17.05;;;0.10;99.90;;;;;;5074096;28;20050;-63
2024/01/20 06:03:29;;;;;;;28.95;15.48;;;0.40;99.90;;;;;;5073333;28;20149;-62
2024/01/20 06:05:57;;;;;;;32.90;16.52;;;0.60;99.90;;;;;;5074101;28;20052;-63
2024/01/20 06:08:22;;;;;;;24.42;14.70;;;0.50;99.90;;;;;;5074323;28;20049;-63
2024/01/20 06:10:48;;;;;;;28.10;15.23;;;0.50;99.90;;;;;;5074358;28;20116;-62
2024/01/20 06:13:13;;;;;;;30.08;15.23;;;-0.50;99.90;;;;;;5074022;28;20036;-63
2024/01/20 06:15:39;;;;;;;28.92;14.80;;;0.50;99.90;;;;;;5057184;28;20492;-63
2024/01/20 06:18:05;;;;;;;31.35;16.67;;;0.60;99.90;;;;;;5078005;28;20053;-63
2024/01/20 06:20:30;;;;;;;28.05;15.05;;;-0.70;99.90;;;;;;5077899;28;20074;-63
2024/01/20 06:22:56;;;;;;;30.17;15.68;;;0.60;99.90;;;;;;5060339;28;20055;-63
2024/01/20 06:25:22;;;;;;;33.08;15.75;;;0.30;99.90;;;;;;5077916;28;20092;-63
2024/01/20 06:27:47;;;;;;;27.42;14.60;;;-0.60;99.90;;;;;;5043162;28;20595;-63
2024/01/20 06:30:13;;;;;;;31.23;14.65;;;0.70;99.90;;;;;;5077490;28;20053;-63
2024/01/20 06:32:41;;;;;;;30.58;16.02;;;0.60;99.90;;;;;;5077387;28;20084;-63
2024/01/20 06:35:08;;;;;;;28.17;14.75;;;0.40;99.90;;;;;;5059130;28;20114;-63
2024/01/20 06:37:34;;;;;;;28.88;15.70;;;0.10;99.90;;;;;;5059658;28;20053;-63
2024/01/20 06:39:59;;;;;;;29.63;14.93;;;0.00;99.90;;;;;;5077699;28;20043;-63
2024/01/20 06:42:25;;;;;;;29.92;14.77;;;-0.50;99.90;;;;;;5059711;28;20117;-62
2024/01/20 06:44:51;;;;;;;28.98;15.88;;;0.50;99.90;;;;;;5059144;28;20082;-63
2024/01/20 06:47:17;;;;;;;28.65;14.43;;;-0.60;99.90;;;;;;5076969;28;20044;-63
2024/01/20 06:49:49;;;;;;;28.75;14.73;;;-0.10;99.90;;;;;;5077162;28;20103;-62
2024/01/20 06:52:15;;;;;;;30.05;14.50;;;0.30;99.90;;;;;;5077249;28;20072;-63
2024/01/20 06:54:41;;;;;;;30.80;15.50;;;-0.20;99.90;;;;;;5077472;28;20040;-63
2024/01/20 06:57:07;;;;;;;31.65;15.20;;;-0.70;99.90;;;;;;5077160;28;20079;-63
2024/01/20 06:59:32;;;;;;;27.65;13.73;;;-0.60;99.90;;;;;;5076892;28;20603;-63
2024/01/20 07:01:58;;;;;;;29.55;14.73;;;0.40;99.90;;;;;;5077387;28;20109;-63
2024/01/20 07:04:24;;;;;;;28.25;14.18;;;0.50;99.90;;;;;;5076474;28;20060;-63
2024/01/20 07:06:50;;;;;;;30.83;13.27;;;0.00;99.90;;;;;;5059044;28;20135;-63
2024/01/20 07:09:15;;;;;;;30.92;14.95;;;0.20;99.90;;;;;;5076954;28;20046;-63
2024/01/20 07:11:41;;;;;;;30.40;13.85;;;0.50;99.90;;;;;;5076640;28;20032;-64
2024/01/20 07:14:07;;;;;;;35.58;15.45;;;0.40;99.90;;;;;;5059176;28;20053;-63
2024/01/20 07:16:32;;;;;;;33.78;14.63;;;-0.10;99.90;;;;;;5077124;28;20961;-63
2024/01/20 07:18:58;;;;;;;28.98;14.40;;;0.00;99.90;;;;;;5076838;28;20049;-63
2024/01/20 07:21:24;;;;;;;31.85;15.13;;;0.50;99.90;;;;;;5076973;28;20044;-63
2024/01/20 07:23:49;;;;;;;26.60;13.63;;;0.10;99.90;;;;;;5058273;28;20047;-64
2024/01/20 07:26:15;;;;;;;35.28;14.48;;;0.50;99.90;;;;;;5076304;28;20067;-63
2024/01/20 07:28:41;;;;;;;27.42;13.85;;;0.50;99.90;;;;;;5075561;28;20045;-62
2024/01/20 07:31:07;;;;;;;33.65;15.77;;;-0.30;99.90;;;;;;5076590;28;20056;-63
2024/01/20 07:33:33;;;;;;;32.50;17.02;;;0.50;99.90;;;;;;5076498;28;20080;-62
2024/01/20 07:36:00;;;;;;;34.00;16.73;;;0.10;99.90;;;;;;5058054;28;20090;-63
2024/01/20 07:38:25;;;;;;;35.65;16.35;;;-0.60;99.90;;;;;;5075478;28;20080;-63
2024/01/20 07:40:54;;;;;;;36.90;17.55;;;-0.50;99.90;;;;;;5058468;28;20051;-63
2024/01/20 07:43:21;;;;;;;35.85;17.08;;;-0.60;99.90;;;;;;5076531;28;20112;-63
2024/01/20 07:45:47;;;;;;;35.13;16.45;;;-0.50;99.90;;;;;;5076140;28;20092;-63
2024/01/20 07:48:12;;;;;;;38.00;17.83;;;-0.30;99.90;;;;;;5075350;28;20103;-63
2024/01/20 07:50:38;;;;;;;33.25;18.10;;;-0.50;99.90;;;;;;5076720;28;20143;-63
2024/01/20 07:53:04;;;;;;;32.28;18.58;;;-0.40;99.90;;;;;;5076639;28;20036;-63
2024/01/20 07:55:29;;;;;;;32.65;17.45;;;-0.50;99.90;;;;;;5076074;28;20044;-64
2024/01/20 07:57:55;;;;;;;37.33;18.00;;;-0.40;99.90;;;;;;5076058;28;20044;-64
2024/01/20 08:00:21;;;;;;;38.03;17.77;;;0.60;99.90;;;;;;5075457;28;20507;-64
2024/01/20 08:02:47;;;;;;;37.08;16.77;;;-0.50;99.90;;;;;;5075547;28;20134;-64
2024/01/20 08:05:12;;;;;;;35.00;17.95;;;0.30;99.90;;;;;;5075694;28;20044;-63
2024/01/20 08:07:38;;;;;;;33.53;16.85;;;0.60;99.90;;;;;;5075927;28;20040;-63
2024/01/20 08:10:04;;;;;;;31.23;15.75;;;-0.40;99.90;;;;;;5075868;28;20131;-64
2024/01/20 08:12:31;;;;;;;55.08;17.55;;;-0.50;99.90;;;;;;5075576;28;20447;-64
2024/01/20 08:14:56;;;;;;;31.05;16.42;;;-0.50;99.90;;;;;;5075565;28;20044;-63
2024/01/20 08:17:23;;;;;;;35.83;15.60;;;0.30;99.90;;;;;;5075151;28;20064;-63
2024/01/20 08:19:51;;;;;;;35.83;18.50;;;0.10;99.90;;;;;;5057295;28;20040;-63
2024/01/20 08:22:17;;;;;;;37.22;17.52;;;-0.40;99.90;;;;;;5075007;28;20041;-63
2024/01/20 08:24:43;;;;;;;33.90;17.20;;;-0.50;99.90;;;;;;5075457;28;20106;-63
2024/01/20 08:27:09;;;;;;;36.15;17.38;;;-0.50;99.90;;;;;;5075694;28;20048;-63
2024/01/20 08:29:34;;;;;;;40.45;19.30;;;0.40;99.90;;;;;;5057544;28;20075;-63
2024/01/20 08:32:00;;;;;;;35.35;18.02;;;-0.20;99.90;;;;;;5075452;28;20487;-63
2024/01/20 08:34:26;;;;;;;38.10;17.60;;;0.70;99.90;;;;;;5075025;28;20098;-61
2024/01/20 08:36:52;;;;;;;36.08;18.73;;;-0.30;99.90;;;;;;5074773;28;20637;-61
2024/01/20 08:39:20;;;;;;;35.90;17.38;;;-0.40;99.90;;;;;;5074662;28;20040;-60
2024/01/20 08:41:47;;;;;;;39.30;17.73;;;-0.30;99.90;;;;;;5076139;28;20629;-61
2024/01/20 08:44:13;;;;;;;39.20;18.42;;;0.70;99.90;;;;;;5060931;28;20071;-62
2024/01/20 08:46:39;;;;;;;35.65;18.08;;;0.10;99.90;;;;;;5061170;28;20113;-63
2024/01/20 08:49:05;;;;;;;40.00;19.25;;;0.00;99.90;;;;;;5078968;28;20096;-62
2024/01/20 08:51:30;;;;;;;45.38;21.80;;;-0.30;99.90;;;;;;5060866;28;20512;-61
2024/01/20 08:53:56;;;;;;;41.55;19.08;;;-0.10;99.90;;;;;;5078435;28;20087;-61
2024/01/20 08:56:22;;;;;;;36.38;19.15;;;-0.20;99.90;;;;;;5059876;28;20059;-60
2024/01/20 08:58:47;;;;;;;41.03;19.38;;;-0.10;99.90;;;;;;5078263;28;20050;-61
2024/01/20 09:01:13;;;;;;;38.47;19.77;;;-0.20;99.90;;;;;;5078788;28;20053;-61
2024/01/20 09:03:39;;;;;;;37.88;19.17;;;1.20;99.90;;;;;;5078804;28;20037;-61
2024/01/20 09:06:04;;;;;;;40.45;20.90;;;1.10;99.90;;;;;;5076796;28;20574;-60
2024/01/20 09:08:30;;;;;;;38.80;18.75;;;-0.10;99.90;;;;;;5078417;28;20127;-62
2024/01/20 09:10:56;;;;;;;38.35;20.42;;;1.20;99.90;;;;;;5078339;28;20036;-61
2024/01/20 09:13:22;;;;;;;34.40;19.20;;;0.10;99.90;;;;;;5060040;28;20040;-61
2024/01/20 09:15:47;;;;;;;38.85;19.15;;;0.00;99.90;;;;;;5078330;28;20072;-61
2024/01/20 09:18:16;;;;;;;36.75;19.10;;;0.40;99.90;;;;;;5077973;28;20102;-61
2024/01/20 09:20:42;;;;;;;36.58;19.88;;;1.40;99.90;;;;;;5078424;28;20083;-61
2024/01/20 09:23:07;;;;;;;44.97;20.55;;;1.40;99.90;;;;;;5078571;28;20042;-61
2024/01/20 09:25:33;;;;;;;39.67;19.17;;;1.40;99.90;;;;;;5078467;28;20037;-61
2024/01/20 09:28:00;;;;;;;36.88;19.90;;;0.10;99.90;;;;;;5078015;28;20510;-61
2024/01/20 09:30:25;;;;;;;39.47;19.65;;;1.30;99.90;;;;;;5078083;28;20246;-61
2024/01/20 09:32:51;;;;;;;40.08;20.73;;;1.30;99.90;;;;;;5077553;28;20446;-61
2024/01/20 09:35:17;;;;;;;37.58;19.17;;;0.30;99.90;;;;;;5077353;28;20071;-61
2024/01/20 09:37:43;;;;;;;41.30;20.08;;;0.10;99.90;;;;;;5078069;28;20048;-61
2024/01/20 09:40:09;;;;;;;39.42;20.45;;;0.30;99.90;;;;;;5078303;28;20040;-64
2024/01/20 09:42:35;;;;;;;42.55;18.90;;;0.10;99.90;;;;;;5078184;28;20126;-63
2024/01/20 09:45:00;;;;;;;39.22;18.42;;;0.40;99.90;;;;;;5079812;28;20503;-63
2024/01/20 09:47:27;;;;;;;37.53;18.90;;;0.20;99.90;;;;;;5077290;28;20110;-62
2024/01/20 09:49:53;;;;;;;37.22;18.45;;;1.60;99.90;;;;;;5077316;28;20052;-63
2024/01/20 09:52:31;;;;;;;35.35;18.15;;;0.30;99.90;;;;;;5071684;28;20051;-63
2024/01/20 09:55:23;;;;;;;39.60;18.00;;;1.60;99.90;;;;;;5071351;28;20123;-63
2024/01/20 09:57:53;;;;;;;37.00;17.40;;;1.60;99.90;;;;;;5067884;28;20277;-63
2024/01/20 10:00:23;;;;;;;35.28;17.85;;;0.50;99.90;;;;;;5081006;28;20044;-66
2024/01/20 10:02:49;;;;;;;33.65;17.30;;;0.80;99.90;;;;;;5069496;28;20047;-63
2024/01/20 10:05:16;;;;;;;38.80;17.63;;;1.70;99.90;;;;;;5081009;28;20047;-63
2024/01/20 10:07:43;;;;;;;34.42;17.80;;;1.80;99.90;;;;;;5066067;28;20041;-65
2024/01/20 10:10:17;;;;;;;38.47;18.38;;;1.50;99.90;;;;;;5080438;28;20052;-65
2024/01/20 10:12:42;;;;;;;36.55;17.52;;;0.70;99.90;;;;;;5081945;28;20032;-65
2024/01/20 10:15:08;;;;;;;37.13;17.13;;;1.90;99.90;;;;;;5080286;28;20047;-64
2024/01/20 10:17:37;;;;;;;35.38;17.33;;;1.10;99.90;;;;;;5081275;28;20056;-64
2024/01/20 10:20:04;;;;;;;33.78;18.42;;;1.80;99.90;;;;;;5081246;28;20528;-65
2024/01/20 10:22:29;;;;;;;35.42;17.35;;;0.70;99.90;;;;;;5080029;28;20048;-65
2024/01/20 10:24:55;;;;;;;36.17;16.70;;;1.40;99.90;;;;;;5081078;28;20064;-64
2024/01/20 10:27:25;;;;;;;32.70;16.67;;;2.00;99.90;;;;;;5081693;28;20043;-64
2024/01/20 10:29:51;;;;;;;35.97;17.42;;;0.80;99.90;;;;;;5080953;28;20096;-65
2024/01/20 10:32:16;;;;;;;31.73;16.10;;;1.30;99.90;;;;;;5078424;28;20076;-64
2024/01/20 10:34:43;;;;;;;32.25;15.52;;;1.90;99.90;;;;;;5079852;28;20037;-65
2024/01/20 10:37:11;;;;;;;35.70;16.95;;;2.10;99.90;;;;;;5079960;28;20055;-64
2024/01/20 10:39:45;;;;;;;34.00;15.93;;;2.20;99.90;;;;;;5062786;28;20092;-64
2024/01/20 10:42:15;;;;;;;35.67;17.20;;;2.20;99.90;;;;;;5071308;28;20038;-65
2024/01/20 10:45:10;;;;;;;35.53;15.75;;;0.90;99.90;;;;;;5075043;28;20036;-65
2024/01/20 10:47:37;;;;;;;34.22;16.70;;;1.00;99.90;;;;;;5029876;28;20056;-65
2024/01/20 10:50:08;;;;;;;35.67;16.40;;;1.00;99.90;;;;;;5080673;28;20049;-65
2024/01/20 10:52:35;;;;;;;29.17;15.05;;;1.80;99.90;;;;;;5080931;28;20079;-65
2024/01/20 10:55:02;;;;;;;33.40;16.48;;;1.50;99.90;;;;;;5062937;28;20084;-65
2024/01/20 10:57:28;;;;;;;32.20;15.30;;;1.40;99.90;;;;;;5080701;28;20044;-65
2024/01/20 10:59:56;;;;;;;33.05;14.35;;;1.20;99.90;;;;;;5080881;28;20048;-65
2024/01/20 11:02:23;;;;;;;34.63;15.73;;;1.40;99.90;;;;;;5080530;28;20068;-65
2024/01/20 11:04:49;;;;;;;31.45;14.73;;;1.10;99.90;;;;;;5080287;28;20076;-64
2024/01/20 11:07:28;;;;;;;30.83;15.48;;;1.10;99.90;;;;;;5062993;28;20064;-65
2024/01/20 11:09:58;;;;;;;31.67;14.38;;;1.60;99.90;;;;;;5062762;28;20048;-65
2024/01/20 11:12:25;;;;;;;32.70;14.95;;;1.90;99.90;;;;;;5060619;28;20076;-65
2024/01/20 11:14:53;;;;;;;31.08;14.90;;;1.90;99.90;;;;;;5060122;28;20037;-64
2024/01/20 11:17:19;;;;;;;35.30;16.65;;;2.20;99.90;;;;;;5060011;28;20056;-66
2024/01/20 11:19:45;;;;;;;27.90;14.93;;;1.90;99.90;;;;;;5054583;28;20079;-65
2024/01/20 11:22:30;;;;;;;32.97;15.07;;;1.30;99.90;;;;;;5079778;28;20037;-63
2024/01/20 11:24:56;;;;;;;33.10;15.25;;;2.50;99.90;;;;;;5079924;28;20040;-65
2024/01/20 11:27:22;;;;;;;26.80;13.15;;;2.50;99.90;;;;;;5079731;28;20033;-65
2024/01/20 11:29:48;;;;;;;30.77;15.07;;;2.60;99.90;;;;;;5061739;28;20041;-65
2024/01/20 11:32:13;;;;;;;33.03;14.80;;;2.50;99.90;;;;;;5079134;28;20068;-65
2024/01/20 11:34:42;;;;;;;32.65;17.42;;;2.10;99.90;;;;;;5080283;28;20564;-65
2024/01/20 11:37:08;;;;;;;36.13;17.02;;;1.30;99.90;;;;;;5080281;28;20423;-65
2024/01/20 11:39:34;;;;;;;33.47;15.05;;;1.30;99.90;;;;;;5045811;28;20044;-65
2024/01/20 11:42:01;;;;;;;31.98;15.18;;;1.60;99.90;;;;;;5080451;28;20040;-64
2024/01/20 11:44:29;;;;;;;34.90;16.45;;;2.00;99.90;;;;;;5080354;28;20033;-65
2024/01/20 11:46:55;;;;;;;35.50;17.23;;;1.20;99.90;;;;;;5080092;28;20048;-65
2024/01/20 11:49:21;;;;;;;32.47;15.38;;;2.30;99.90;;;;;;5079706;28;20526;-65
2024/01/20 11:51:47;;;;;;;34.40;16.85;;;2.30;99.90;;;;;;5061968;28;20076;-66
2024/01/20 11:54:13;;;;;;;36.22;17.52;;;2.30;99.90;;;;;;5079657;28;20438;-66
2024/01/20 11:56:38;;;;;;;38.22;17.70;;;1.80;99.90;;;;;;5080054;28;20418;-66
2024/01/20 11:59:05;;;;;;;37.67;18.08;;;2.10;99.90;;;;;;5080123;28;20067;-65
2024/01/20 12:01:31;;;;;;;41.28;18.85;;;1.30;99.90;;;;;;5080315;28;20060;-66
2024/01/20 12:03:59;;;;;;;46.65;23.40;;;1.20;99.90;;;;;;5062044;28;20086;-65
2024/01/20 12:06:25;;;;;;;44.60;20.77;;;1.30;99.90;;;;;;5061164;28;20618;-66
2024/01/20 12:08:51;;;;;;;41.20;21.10;;;1.90;99.90;;;;;;5061615;28;20045;-66
2024/01/20 12:11:22;;;;;;;45.85;20.42;;;1.60;99.90;;;;;;5061525;28;20180;-66
2024/01/20 12:13:48;;;;;;;42.03;20.43;;;2.10;99.90;;;;;;5079205;28;20056;-66
2024/01/20 12:16:16;;;;;;;45.15;23.55;;;2.50;99.90;;;;;;5079648;28;20033;-65
2024/01/20 12:18:42;;;;;;;39.65;20.42;;;2.50;99.90;;;;;;5079902;28;20167;-66
2024/01/20 12:21:08;;;;;;;38.83;21.02;;;1.60;99.90;;;;;;5078163;28;20078;-66
2024/01/20 12:23:35;;;;;;;44.90;21.33;;;1.50;99.90;;;;;;5079501;28;20036;-65
2024/01/20 12:26:01;;;;;;;39.90;20.60;;;1.60;99.90;;;;;;5061426;28;20043;-66
2024/01/20 12:28:27;;;;;;;44.40;22.63;;;2.00;99.90;;;;;;5079039;28;20045;-66
2024/01/20 12:30:53;;;;;;;42.67;21.25;;;1.90;99.90;;;;;;5079451;28;20140;-65
2024/01/20 12:33:18;;;;;;;43.08;20.92;;;2.70;99.90;;;;;;5079342;28;20029;-66